sensor_id;sensor_type;location;lat;lon;timestamp;temperature;humidity
17092;DHT22;8661;45.700;4.880;2023-07-28T00:02:06;23.50;95.50
17092;DHT22;8661;45.700;4.880;2023-07-28T00:04:34;23.40;95.80
17092;DHT22;8661;45.700;4.880;2023-07-28T00:07:02;23.40;96.20
17092;DHT22;8661;45.700;4.880;2023-07-28T00:09:28;23.20;96.60
17092;DHT22;8661;45.700;4.880;2023-07-28T00:11:56;23.20;97.00
17092;DHT22;8661;45.700;4.880;2023-07-28T00:14:23;23.10;97.20
17092;DHT22;8661;45.700;4.880;2023-07-28T00:16:50;23.10;97.60
17092;DHT22;8661;45.700;4.880;2023-07-28T00:19:18;23.00;98.00
17092;DHT22;8661;45.700;4.880;2023-07-28T00:21:46;23.00;98.40
17092;DHT22;8661;45.700;4.880;2023-07-28T00:24:13;23.00;98.90
17092;DHT22;8661;45.700;4.880;2023-07-28T00:26:40;23.00;99.30
17092;DHT22;8661;45.700;4.880;2023-07-28T00:29:07;22.90;99.90
17092;DHT22;8661;45.700;4.880;2023-07-28T00:31:34;23.00;99.90
17092;DHT22;8661;45.700;4.880;2023-07-28T00:34:02;22.90;99.90
17092;DHT22;8661;45.700;4.880;2023-07-28T00:36:31;22.90;99.90
17092;DHT22;8661;45.700;4.880;2023-07-28T00:38:58;22.90;99.90
17092;DHT22;8661;45.700;4.880;2023-07-28T00:41:25;22.90;99.90
17092;DHT22;8661;45.700;4.880;2023-07-28T00:43:52;22.90;99.90
17092;DHT22;8661;45.700;4.880;2023-07-28T00:46:19;22.90;99.90
17092;DHT22;8661;45.700;4.880;2023-07-28T00:48:46;22.80;99.90
17092;DHT22;8661;45.700;4.880;2023-07-28T00:51:13;22.80;99.90
17092;DHT22;8661;45.700;4.880;2023-07-28T00:53:42;22.80;99.90
17092;DHT22;8661;45.700;4.880;2023-07-28T00:56:10;22.80;99.90
17092;DHT22;8661;45.700;4.880;2023-07-28T00:58:37;22.80;99.90
17092;DHT22;8661;45.700;4.880;2023-07-28T01:01:04;22.80;99.90
17092;DHT22;8661;45.700;4.880;2023-07-28T01:03:31;22.70;99.90
17092;DHT22;8661;45.700;4.880;2023-07-28T01:06:10;22.70;99.90
17092;DHT22;8661;45.700;4.880;2023-07-28T01:08:47;22.70;99.90
17092;DHT22;8661;45.700;4.880;2023-07-28T01:11:16;22.70;99.90
17092;DHT22;8661;45.700;4.880;2023-07-28T01:13:43;22.60;99.90
17092;DHT22;8661;45.700;4.880;2023-07-28T01:16:12;22.60;99.90
17092;DHT22;8661;45.700;4.880;2023-07-28T01:18:39;22.60;99.90
17092;DHT22;8661;45.700;4.880;2023-07-28T01:21:09;22.60;99.90
17092;DHT22;8661;45.700;4.880;2023-07-28T01:23:47;22.50;99.90
17092;DHT22;8661;45.700;4.880;2023-07-28T01:26:25;22.50;99.90
17092;DHT22;8661;45.700;4.880;2023-07-28T01:28:52;22.40;99.90
17092;DHT22;8661;45.700;4.880;2023-07-28T01:31:19;22.40;99.90
17092;DHT22;8661;45.700;4.880;2023-07-28T01:33:46;22.40;99.90
17092;DHT22;8661;45.700;4.880;2023-07-28T01:36:13;22.30;99.90
17092;DHT22;8661;45.700;4.880;2023-07-28T01:38:40;22.30;99.90
17092;DHT22;8661;45.700;4.880;2023-07-28T01:41:07;22.20;99.90
17092;DHT22;8661;45.700;4.880;2023-07-28T01:43:36;22.20;99.90
17092;DHT22;8661;45.700;4.880;2023-07-28T01:46:02;22.20;99.90
17092;DHT22;8661;45.700;4.880;2023-07-28T01:48:29;22.20;99.90
17092;DHT22;8661;45.700;4.880;2023-07-28T01:50:56;22.20;99.90
17092;DHT22;8661;45.700;4.880;2023-07-28T01:53:23;22.20;99.90
17092;DHT22;8661;45.700;4.880;2023-07-28T01:55:50;22.30;99.90
17092;DHT22;8661;45.700;4.880;2023-07-28T01:58:17;22.30;99.90
17092;DHT22;8661;45.700;4.880;2023-07-28T02:00:45;22.30;99.90
17092;DHT22;8661;45.700;4.880;2023-07-28T02:03:12;22.30;99.90
17092;DHT22;8661;45.700;4.880;2023-07-28T02:05:39;22.30;99.90
17092;DHT22;8661;45.700;4.880;2023-07-28T02:08:06;22.30;99.90
17092;DHT22;8661;45.700;4.880;2023-07-28T02:10:32;22.30;99.90
17092;DHT22;8661;45.700;4.880;2023-07-28T02:12:59;22.30;99.90
17092;DHT22;8661;45.700;4.880;2023-07-28T02:15:26;22.30;99.90
17092;DHT22;8661;45.700;4.880;2023-07-28T02:17:54;22.30;99.90
17092;DHT22;8661;45.700;4.880;2023-07-28T02:20:21;22.30;99.90
17092;DHT22;8661;45.700;4.880;2023-07-28T02:22:48;22.20;99.90
17092;DHT22;8661;45.700;4.880;2023-07-28T02:25:15;22.20;99.90
17092;DHT22;8661;45.700;4.880;2023-07-28T02:27:42;22.20;99.90
17092;DHT22;8661;45.700;4.880;2023-07-28T02:30:09;22.20;99.90
17092;DHT22;8661;45.700;4.880;2023-07-28T02:32:37;22.20;99.90
17092;DHT22;8661;45.700;4.880;2023-07-28T02:35:07;22.10;99.90
17092;DHT22;8661;45.700;4.880;2023-07-28T02:37:33;22.10;99.90
17092;DHT22;8661;45.700;4.880;2023-07-28T02:40:00;22.00;99.90
17092;DHT22;8661;45.700;4.880;2023-07-28T02:42:27;22.00;99.90
17092;DHT22;8661;45.700;4.880;2023-07-28T02:44:54;22.00;99.90
17092;DHT22;8661;45.700;4.880;2023-07-28T02:47:21;22.00;99.90
17092;DHT22;8661;45.700;4.880;2023-07-28T02:49:49;21.90;99.90
17092;DHT22;8661;45.700;4.880;2023-07-28T02:52:17;21.90;99.90
17092;DHT22;8661;45.700;4.880;2023-07-28T02:54:44;21.90;99.90
17092;DHT22;8661;45.700;4.880;2023-07-28T02:57:11;21.90;99.90
17092;DHT22;8661;45.700;4.880;2023-07-28T02:59:38;21.80;99.90
17092;DHT22;8661;45.700;4.880;2023-07-28T03:02:05;21.80;99.90
17092;DHT22;8661;45.700;4.880;2023-07-28T03:04:32;21.80;99.90
17092;DHT22;8661;45.700;4.880;2023-07-28T03:06:59;21.80;99.90
17092;DHT22;8661;45.700;4.880;2023-07-28T03:09:27;21.80;99.90
17092;DHT22;8661;45.700;4.880;2023-07-28T03:11:54;21.70;99.90
17092;DHT22;8661;45.700;4.880;2023-07-28T03:14:21;21.70;99.90
17092;DHT22;8661;45.700;4.880;2023-07-28T03:16:48;21.70;99.90
17092;DHT22;8661;45.700;4.880;2023-07-28T03:19:15;21.70;99.90
17092;DHT22;8661;45.700;4.880;2023-07-28T03:21:43;21.70;99.90
17092;DHT22;8661;45.700;4.880;2023-07-28T03:24:09;21.70;99.90
17092;DHT22;8661;45.700;4.880;2023-07-28T03:26:38;21.60;99.90
17092;DHT22;8661;45.700;4.880;2023-07-28T03:29:05;21.60;99.90
17092;DHT22;8661;45.700;4.880;2023-07-28T03:31:34;21.60;99.90
17092;DHT22;8661;45.700;4.880;2023-07-28T03:34:01;21.60;99.90
17092;DHT22;8661;45.700;4.880;2023-07-28T03:36:28;21.50;99.90
17092;DHT22;8661;45.700;4.880;2023-07-28T03:38:55;21.50;99.90
17092;DHT22;8661;45.700;4.880;2023-07-28T03:41:22;21.50;99.90
17092;DHT22;8661;45.700;4.880;2023-07-28T03:43:51;21.50;99.90
17092;DHT22;8661;45.700;4.880;2023-07-28T03:46:17;21.50;99.90
17092;DHT22;8661;45.700;4.880;2023-07-28T03:48:44;21.50;99.90
17092;DHT22;8661;45.700;4.880;2023-07-28T03:51:11;21.50;99.90
17092;DHT22;8661;45.700;4.880;2023-07-28T03:53:38;21.50;99.90
17092;DHT22;8661;45.700;4.880;2023-07-28T03:56:05;21.50;99.90
17092;DHT22;8661;45.700;4.880;2023-07-28T03:58:32;21.50;99.90
17092;DHT22;8661;45.700;4.880;2023-07-28T04:01:00;21.50;99.90
17092;DHT22;8661;45.700;4.880;2023-07-28T04:03:27;21.50;99.90
17092;DHT22;8661;45.700;4.880;2023-07-28T04:05:54;21.50;99.90
17092;DHT22;8661;45.700;4.880;2023-07-28T04:08:21;21.50;99.90
17092;DHT22;8661;45.700;4.880;2023-07-28T04:10:47;21.50;99.90
17092;DHT22;8661;45.700;4.880;2023-07-28T04:13:14;21.50;99.90
17092;DHT22;8661;45.700;4.880;2023-07-28T04:15:41;21.50;99.90
17092;DHT22;8661;45.700;4.880;2023-07-28T04:18:10;21.40;99.90
17092;DHT22;8661;45.700;4.880;2023-07-28T04:20:36;21.40;99.90
17092;DHT22;8661;45.700;4.880;2023-07-28T04:23:03;21.40;99.90
17092;DHT22;8661;45.700;4.880;2023-07-28T04:25:30;21.40;99.90
17092;DHT22;8661;45.700;4.880;2023-07-28T04:27:57;21.40;99.90
17092;DHT22;8661;45.700;4.880;2023-07-28T04:30:24;21.30;99.90
17092;DHT22;8661;45.700;4.880;2023-07-28T04:32:51;21.30;99.90
17092;DHT22;8661;45.700;4.880;2023-07-28T04:35:19;21.30;99.90
17092;DHT22;8661;45.700;4.880;2023-07-28T04:37:46;21.20;99.90
17092;DHT22;8661;45.700;4.880;2023-07-28T04:40:13;21.20;99.90
17092;DHT22;8661;45.700;4.880;2023-07-28T04:42:40;21.20;99.90
17092;DHT22;8661;45.700;4.880;2023-07-28T04:45:07;21.20;99.90
17092;DHT22;8661;45.700;4.880;2023-07-28T04:47:35;21.20;99.90
17092;DHT22;8661;45.700;4.880;2023-07-28T04:50:02;21.20;99.90
17092;DHT22;8661;45.700;4.880;2023-07-28T04:52:30;21.30;99.90
17092;DHT22;8661;45.700;4.880;2023-07-28T04:54:57;21.30;99.90
17092;DHT22;8661;45.700;4.880;2023-07-28T04:57:23;21.30;99.90
17092;DHT22;8661;45.700;4.880;2023-07-28T04:59:50;21.30;99.90
17092;DHT22;8661;45.700;4.880;2023-07-28T05:02:18;21.30;99.90
17092;DHT22;8661;45.700;4.880;2023-07-28T05:04:44;21.30;99.90
17092;DHT22;8661;45.700;4.880;2023-07-28T05:07:11;21.30;99.90
17092;DHT22;8661;45.700;4.880;2023-07-28T05:09:39;21.40;99.90
17092;DHT22;8661;45.700;4.880;2023-07-28T05:12:07;21.40;99.90
17092;DHT22;8661;45.700;4.880;2023-07-28T05:14:34;21.50;99.90
17092;DHT22;8661;45.700;4.880;2023-07-28T05:17:01;21.50;99.90
17092;DHT22;8661;45.700;4.880;2023-07-28T05:19:28;21.60;99.90
17092;DHT22;8661;45.700;4.880;2023-07-28T05:21:55;21.70;99.90
17092;DHT22;8661;45.700;4.880;2023-07-28T05:24:22;21.80;99.90
17092;DHT22;8661;45.700;4.880;2023-07-28T05:26:50;21.90;99.90
17092;DHT22;8661;45.700;4.880;2023-07-28T05:29:17;22.10;99.90
17092;DHT22;8661;45.700;4.880;2023-07-28T05:31:44;22.20;99.90
17092;DHT22;8661;45.700;4.880;2023-07-28T05:34:10;22.40;99.90
17092;DHT22;8661;45.700;4.880;2023-07-28T05:36:38;22.50;99.90
17092;DHT22;8661;45.700;4.880;2023-07-28T05:39:05;22.60;99.90
17092;DHT22;8661;45.700;4.880;2023-07-28T05:41:32;22.70;99.90
17092;DHT22;8661;45.700;4.880;2023-07-28T05:44:00;22.80;99.90
17092;DHT22;8661;45.700;4.880;2023-07-28T05:46:27;23.00;99.90
17092;DHT22;8661;45.700;4.880;2023-07-28T05:48:54;23.10;99.90
17092;DHT22;8661;45.700;4.880;2023-07-28T05:51:21;23.20;99.90
17092;DHT22;8661;45.700;4.880;2023-07-28T05:53:49;23.50;99.90
17092;DHT22;8661;45.700;4.880;2023-07-28T05:56:18;23.70;99.90
17092;DHT22;8661;45.700;4.880;2023-07-28T05:58:46;23.90;99.90
17092;DHT22;8661;45.700;4.880;2023-07-28T06:01:14;24.10;99.90
17092;DHT22;8661;45.700;4.880;2023-07-28T06:03:41;24.40;99.90
17092;DHT22;8661;45.700;4.880;2023-07-28T06:06:08;24.60;99.90
17092;DHT22;8661;45.700;4.880;2023-07-28T06:08:35;24.70;99.90
17092;DHT22;8661;45.700;4.880;2023-07-28T06:11:03;24.90;99.90
17092;DHT22;8661;45.700;4.880;2023-07-28T06:13:30;25.20;99.90
17092;DHT22;8661;45.700;4.880;2023-07-28T06:15:58;25.60;99.90
17092;DHT22;8661;45.700;4.880;2023-07-28T06:18:26;25.80;99.90
17092;DHT22;8661;45.700;4.880;2023-07-28T06:20:53;25.90;99.90
17092;DHT22;8661;45.700;4.880;2023-07-28T06:23:20;26.20;99.90
17092;DHT22;8661;45.700;4.880;2023-07-28T06:25:49;26.50;99.90
17092;DHT22;8661;45.700;4.880;2023-07-28T06:28:16;26.70;99.90
17092;DHT22;8661;45.700;4.880;2023-07-28T06:30:43;26.80;99.90
17092;DHT22;8661;45.700;4.880;2023-07-28T06:33:10;27.00;99.90
17092;DHT22;8661;45.700;4.880;2023-07-28T06:35:39;27.20;99.90
17092;DHT22;8661;45.700;4.880;2023-07-28T06:38:06;27.50;99.90
17092;DHT22;8661;45.700;4.880;2023-07-28T06:40:32;27.50;99.90
17092;DHT22;8661;45.700;4.880;2023-07-28T06:43:00;27.60;99.90
17092;DHT22;8661;45.700;4.880;2023-07-28T06:45:26;27.70;99.90
17092;DHT22;8661;45.700;4.880;2023-07-28T06:47:53;28.00;99.90
17092;DHT22;8661;45.700;4.880;2023-07-28T06:50:20;28.50;99.90
17092;DHT22;8661;45.700;4.880;2023-07-28T06:52:48;28.90;99.90
17092;DHT22;8661;45.700;4.880;2023-07-28T06:55:15;29.00;99.90
17092;DHT22;8661;45.700;4.880;2023-07-28T06:57:42;28.90;99.90
17092;DHT22;8661;45.700;4.880;2023-07-28T07:00:10;28.90;99.90
17092;DHT22;8661;45.700;4.880;2023-07-28T07:02:37;29.00;99.70
17092;DHT22;8661;45.700;4.880;2023-07-28T07:05:05;29.20;99.20
17092;DHT22;8661;45.700;4.880;2023-07-28T07:07:32;29.10;98.60
17092;DHT22;8661;45.700;4.880;2023-07-28T07:10:01;29.20;98.70
17092;DHT22;8661;45.700;4.880;2023-07-28T07:12:27;29.40;96.80
17092;DHT22;8661;45.700;4.880;2023-07-28T07:14:54;29.50;96.00
17092;DHT22;8661;45.700;4.880;2023-07-28T07:17:21;29.80;94.80
17092;DHT22;8661;45.700;4.880;2023-07-28T07:19:48;29.90;94.10
17092;DHT22;8661;45.700;4.880;2023-07-28T07:22:15;30.00;93.50
17092;DHT22;8661;45.700;4.880;2023-07-28T07:24:42;30.20;93.00
17092;DHT22;8661;45.700;4.880;2023-07-28T07:27:10;30.60;92.20
17092;DHT22;8661;45.700;4.880;2023-07-28T07:29:38;30.70;91.30
17092;DHT22;8661;45.700;4.880;2023-07-28T07:32:05;31.20;90.60
17092;DHT22;8661;45.700;4.880;2023-07-28T07:34:33;31.80;88.80
17092;DHT22;8661;45.700;4.880;2023-07-28T07:37:02;32.00;86.80
17092;DHT22;8661;45.700;4.880;2023-07-28T07:39:29;32.10;85.80
17092;DHT22;8661;45.700;4.880;2023-07-28T07:41:57;31.90;85.90
17092;DHT22;8661;45.700;4.880;2023-07-28T07:44:26;31.70;86.10
17092;DHT22;8661;45.700;4.880;2023-07-28T07:46:53;31.90;85.20
17092;DHT22;8661;45.700;4.880;2023-07-28T07:49:20;32.30;84.20
17092;DHT22;8661;45.700;4.880;2023-07-28T07:51:47;32.40;83.50
17092;DHT22;8661;45.700;4.880;2023-07-28T07:54:14;32.30;82.60
17092;DHT22;8661;45.700;4.880;2023-07-28T07:56:44;32.50;82.30
17092;DHT22;8661;45.700;4.880;2023-07-28T07:59:12;32.80;81.60
17092;DHT22;8661;45.700;4.880;2023-07-28T08:01:40;32.60;81.20
17092;DHT22;8661;45.700;4.880;2023-07-28T08:04:07;32.50;81.10
17092;DHT22;8661;45.700;4.880;2023-07-28T08:06:34;32.30;80.70
17092;DHT22;8661;45.700;4.880;2023-07-28T08:09:01;32.30;80.60
17092;DHT22;8661;45.700;4.880;2023-07-28T08:11:28;32.20;80.30
17092;DHT22;8661;45.700;4.880;2023-07-28T08:13:55;31.90;80.60
17092;DHT22;8661;45.700;4.880;2023-07-28T08:16:22;31.70;80.90
17092;DHT22;8661;45.700;4.880;2023-07-28T08:18:50;31.70;81.20
17092;DHT22;8661;45.700;4.880;2023-07-28T08:21:17;31.80;80.70
17092;DHT22;8661;45.700;4.880;2023-07-28T08:23:44;31.80;80.20
17092;DHT22;8661;45.700;4.880;2023-07-28T08:26:11;31.40;80.50
17092;DHT22;8661;45.700;4.880;2023-07-28T08:28:37;31.10;81.40
17092;DHT22;8661;45.700;4.880;2023-07-28T08:31:04;31.20;82.30
17092;DHT22;8661;45.700;4.880;2023-07-28T08:33:31;31.50;80.80
17092;DHT22;8661;45.700;4.880;2023-07-28T08:35:59;31.90;80.20
17092;DHT22;8661;45.700;4.880;2023-07-28T08:38:26;32.20;79.60
17092;DHT22;8661;45.700;4.880;2023-07-28T08:40:53;32.20;79.30
17092;DHT22;8661;45.700;4.880;2023-07-28T08:43:20;32.10;79.20
17092;DHT22;8661;45.700;4.880;2023-07-28T08:45:47;31.70;80.30
17092;DHT22;8661;45.700;4.880;2023-07-28T08:48:14;31.50;80.80
17092;DHT22;8661;45.700;4.880;2023-07-28T08:50:41;31.60;80.80
17092;DHT22;8661;45.700;4.880;2023-07-28T08:53:09;31.80;80.10
17092;DHT22;8661;45.700;4.880;2023-07-28T08:55:36;31.90;79.50
17092;DHT22;8661;45.700;4.880;2023-07-28T08:58:16;31.90;79.70
17092;DHT22;8661;45.700;4.880;2023-07-28T09:00:44;32.40;78.30
17092;DHT22;8661;45.700;4.880;2023-07-28T09:03:14;33.00;76.60
17092;DHT22;8661;45.700;4.880;2023-07-28T09:05:45;33.50;75.30
17092;DHT22;8661;45.700;4.880;2023-07-28T09:08:14;33.70;73.90
17092;DHT22;8661;45.700;4.880;2023-07-28T09:10:41;33.70;73.90
17092;DHT22;8661;45.700;4.880;2023-07-28T09:13:09;34.20;72.00
17092;DHT22;8661;45.700;4.880;2023-07-28T09:15:39;34.90;70.90
17092;DHT22;8661;45.700;4.880;2023-07-28T09:18:10;35.30;69.20
17092;DHT22;8661;45.700;4.880;2023-07-28T09:20:38;35.50;68.60
17092;DHT22;8661;45.700;4.880;2023-07-28T09:23:05;35.50;66.90
17092;DHT22;8661;45.700;4.880;2023-07-28T09:25:36;35.80;65.60
17092;DHT22;8661;45.700;4.880;2023-07-28T09:28:04;35.90;64.10
17092;DHT22;8661;45.700;4.880;2023-07-28T09:30:44;36.40;63.30
17092;DHT22;8661;45.700;4.880;2023-07-28T09:33:12;36.80;61.70
17092;DHT22;8661;45.700;4.880;2023-07-28T09:35:48;36.60;61.50
17092;DHT22;8661;45.700;4.880;2023-07-28T09:38:15;35.90;61.80
17092;DHT22;8661;45.700;4.880;2023-07-28T09:40:43;35.40;63.80
17092;DHT22;8661;45.700;4.880;2023-07-28T09:43:12;35.50;63.60
17092;DHT22;8661;45.700;4.880;2023-07-28T09:45:40;35.30;63.40
17092;DHT22;8661;45.700;4.880;2023-07-28T09:48:08;34.60;64.50
17092;DHT22;8661;45.700;4.880;2023-07-28T09:50:38;34.20;65.20
17092;DHT22;8661;45.700;4.880;2023-07-28T09:53:08;33.90;65.70
17092;DHT22;8661;45.700;4.880;2023-07-28T09:55:36;34.10;65.80
17092;DHT22;8661;45.700;4.880;2023-07-28T09:58:09;34.30;65.90
17092;DHT22;8661;45.700;4.880;2023-07-28T10:00:37;34.30;66.00
17092;DHT22;8661;45.700;4.880;2023-07-28T10:03:04;35.10;65.20
17092;DHT22;8661;45.700;4.880;2023-07-28T10:05:32;35.20;64.30
17092;DHT22;8661;45.700;4.880;2023-07-28T10:08:00;35.70;64.20
17092;DHT22;8661;45.700;4.880;2023-07-28T10:10:27;36.60;62.80
17092;DHT22;8661;45.700;4.880;2023-07-28T10:12:55;37.20;60.90
17092;DHT22;8661;45.700;4.880;2023-07-28T10:15:28;37.70;59.90
17092;DHT22;8661;45.700;4.880;2023-07-28T10:17:56;38.30;59.30
17092;DHT22;8661;45.700;4.880;2023-07-28T10:20:29;38.40;58.10
17092;DHT22;8661;45.700;4.880;2023-07-28T10:23:07;38.70;57.30
17092;DHT22;8661;45.700;4.880;2023-07-28T10:25:43;38.10;57.40
17092;DHT22;8661;45.700;4.880;2023-07-28T10:28:26;38.70;56.90
17092;DHT22;8661;45.700;4.880;2023-07-28T10:30:55;38.90;56.00
17092;DHT22;8661;45.700;4.880;2023-07-28T10:33:32;38.00;57.30
17092;DHT22;8661;45.700;4.880;2023-07-28T10:36:10;38.10;57.40
17092;DHT22;8661;45.700;4.880;2023-07-28T10:38:38;38.80;56.40
17092;DHT22;8661;45.700;4.880;2023-07-28T10:41:09;38.90;55.60
17092;DHT22;8661;45.700;4.880;2023-07-28T10:43:36;38.30;56.60
17092;DHT22;8661;45.700;4.880;2023-07-28T10:46:09;37.60;57.20
17092;DHT22;8661;45.700;4.880;2023-07-28T10:48:39;37.20;57.60
17092;DHT22;8661;45.700;4.880;2023-07-28T10:51:07;36.60;58.40
17092;DHT22;8661;45.700;4.880;2023-07-28T10:53:34;36.70;58.60
17092;DHT22;8661;45.700;4.880;2023-07-28T10:56:05;37.50;57.60
17092;DHT22;8661;45.700;4.880;2023-07-28T10:58:37;37.80;57.10
17092;DHT22;8661;45.700;4.880;2023-07-28T11:01:05;37.50;56.90
17092;DHT22;8661;45.700;4.880;2023-07-28T11:03:32;37.30;57.10
17092;DHT22;8661;45.700;4.880;2023-07-28T11:06:00;36.50;57.90
17092;DHT22;8661;45.700;4.880;2023-07-28T11:08:29;35.50;59.60
17092;DHT22;8661;45.700;4.880;2023-07-28T11:11:14;35.00;60.40
17092;DHT22;8661;45.700;4.880;2023-07-28T11:13:41;34.80;60.30
17092;DHT22;8661;45.700;4.880;2023-07-28T11:16:09;34.50;61.50
17092;DHT22;8661;45.700;4.880;2023-07-28T11:18:37;34.60;62.50
17092;DHT22;8661;45.700;4.880;2023-07-28T11:21:04;35.50;60.80
17092;DHT22;8661;45.700;4.880;2023-07-28T11:23:31;36.30;58.70
17092;DHT22;8661;45.700;4.880;2023-07-28T11:25:59;37.10;57.50
17092;DHT22;8661;45.700;4.880;2023-07-28T11:28:26;37.50;57.10
17092;DHT22;8661;45.700;4.880;2023-07-28T11:30:53;38.30;55.50
17092;DHT22;8661;45.700;4.880;2023-07-28T11:33:24;38.60;55.10
17092;DHT22;8661;45.700;4.880;2023-07-28T11:35:51;38.80;54.50
17092;DHT22;8661;45.700;4.880;2023-07-28T11:38:18;38.60;53.80
17092;DHT22;8661;45.700;4.880;2023-07-28T11:40:45;38.60;53.50
17092;DHT22;8661;45.700;4.880;2023-07-28T11:43:12;38.80;53.20
17092;DHT22;8661;45.700;4.880;2023-07-28T11:45:39;39.20;52.80
17092;DHT22;8661;45.700;4.880;2023-07-28T11:48:07;39.00;52.60
17092;DHT22;8661;45.700;4.880;2023-07-28T11:50:39;38.20;53.40
17092;DHT22;8661;45.700;4.880;2023-07-28T11:53:08;37.70;53.90
17092;DHT22;8661;45.700;4.880;2023-07-28T11:55:36;37.00;55.00
17092;DHT22;8661;45.700;4.880;2023-07-28T11:58:04;37.20;56.20
17092;DHT22;8661;45.700;4.880;2023-07-28T12:00:33;37.80;55.80
17092;DHT22;8661;45.700;4.880;2023-07-28T12:03:02;38.10;55.40
17092;DHT22;8661;45.700;4.880;2023-07-28T12:05:30;38.20;54.50
17092;DHT22;8661;45.700;4.880;2023-07-28T12:07:59;37.80;54.10
17092;DHT22;8661;45.700;4.880;2023-07-28T12:10:26;37.10;55.00
17092;DHT22;8661;45.700;4.880;2023-07-28T12:12:53;36.20;56.90
17092;DHT22;8661;45.700;4.880;2023-07-28T12:15:24;35.60;57.80
17092;DHT22;8661;45.700;4.880;2023-07-28T12:18:08;34.90;58.70
17092;DHT22;8661;45.700;4.880;2023-07-28T12:20:36;34.30;59.60
17092;DHT22;8661;45.700;4.880;2023-07-28T12:23:05;34.00;61.10
17092;DHT22;8661;45.700;4.880;2023-07-28T12:25:33;34.40;61.00
17092;DHT22;8661;45.700;4.880;2023-07-28T12:28:00;34.60;61.10
17092;DHT22;8661;45.700;4.880;2023-07-28T12:30:27;34.80;60.80
17092;DHT22;8661;45.700;4.880;2023-07-28T12:32:54;35.20;59.30
17092;DHT22;8661;45.700;4.880;2023-07-28T12:35:21;35.40;58.50
17092;DHT22;8661;45.700;4.880;2023-07-28T12:37:49;35.30;58.30
17092;DHT22;8661;45.700;4.880;2023-07-28T12:40:18;34.90;59.30
17092;DHT22;8661;45.700;4.880;2023-07-28T12:42:45;34.60;59.40
17092;DHT22;8661;45.700;4.880;2023-07-28T12:45:13;35.20;58.90
17092;DHT22;8661;45.700;4.880;2023-07-28T12:47:40;35.80;58.30
17092;DHT22;8661;45.700;4.880;2023-07-28T12:50:08;36.40;56.70
17092;DHT22;8661;45.700;4.880;2023-07-28T12:52:35;35.70;57.20
17092;DHT22;8661;45.700;4.880;2023-07-28T12:55:03;35.40;57.40
17092;DHT22;8661;45.700;4.880;2023-07-28T12:57:32;34.80;58.10
17092;DHT22;8661;45.700;4.880;2023-07-28T12:59:59;34.50;58.60
17092;DHT22;8661;45.700;4.880;2023-07-28T13:02:26;34.10;59.10
17092;DHT22;8661;45.700;4.880;2023-07-28T13:04:53;33.70;59.90
17092;DHT22;8661;45.700;4.880;2023-07-28T13:07:20;33.30;62.00
17092;DHT22;8661;45.700;4.880;2023-07-28T13:09:48;33.40;61.40
17092;DHT22;8661;45.700;4.880;2023-07-28T13:12:15;33.30;61.50
17092;DHT22;8661;45.700;4.880;2023-07-28T13:14:43;33.30;61.70
17092;DHT22;8661;45.700;4.880;2023-07-28T13:17:10;33.50;61.80
17092;DHT22;8661;45.700;4.880;2023-07-28T13:19:38;33.60;61.00
17092;DHT22;8661;45.700;4.880;2023-07-28T13:22:05;33.40;61.30
17092;DHT22;8661;45.700;4.880;2023-07-28T13:24:35;33.50;61.90
17092;DHT22;8661;45.700;4.880;2023-07-28T13:27:04;33.60;61.50
17092;DHT22;8661;45.700;4.880;2023-07-28T13:29:31;33.90;61.00
17092;DHT22;8661;45.700;4.880;2023-07-28T13:32:00;34.20;60.70
17092;DHT22;8661;45.700;4.880;2023-07-28T13:34:27;34.40;60.30
17092;DHT22;8661;45.700;4.880;2023-07-28T13:36:54;34.40;60.10
17092;DHT22;8661;45.700;4.880;2023-07-28T13:39:22;34.20;60.40
17092;DHT22;8661;45.700;4.880;2023-07-28T13:41:49;33.80;60.20
17092;DHT22;8661;45.700;4.880;2023-07-28T13:44:15;33.30;61.10
17092;DHT22;8661;45.700;4.880;2023-07-28T13:46:42;32.90;61.40
17092;DHT22;8661;45.700;4.880;2023-07-28T13:49:15;32.60;61.70
17092;DHT22;8661;45.700;4.880;2023-07-28T13:51:41;32.30;62.70
17092;DHT22;8661;45.700;4.880;2023-07-28T13:54:10;32.00;63.50
17092;DHT22;8661;45.700;4.880;2023-07-28T13:56:37;31.80;64.70
17092;DHT22;8661;45.700;4.880;2023-07-28T13:59:04;31.60;65.20
17092;DHT22;8661;45.700;4.880;2023-07-28T14:01:32;31.60;65.40
17092;DHT22;8661;45.700;4.880;2023-07-28T14:03:59;31.50;65.60
17092;DHT22;8661;45.700;4.880;2023-07-28T14:06:27;31.30;65.90
17092;DHT22;8661;45.700;4.880;2023-07-28T14:08:54;31.40;66.00
17092;DHT22;8661;45.700;4.880;2023-07-28T14:11:21;31.50;66.40
17092;DHT22;8661;45.700;4.880;2023-07-28T14:13:48;31.50;66.20
17092;DHT22;8661;45.700;4.880;2023-07-28T14:16:15;31.50;65.80
17092;DHT22;8661;45.700;4.880;2023-07-28T14:18:42;31.60;65.50
17092;DHT22;8661;45.700;4.880;2023-07-28T14:21:10;31.70;64.40
17092;DHT22;8661;45.700;4.880;2023-07-28T14:23:38;31.90;64.30
17092;DHT22;8661;45.700;4.880;2023-07-28T14:26:05;32.50;62.90
17092;DHT22;8661;45.700;4.880;2023-07-28T14:28:32;32.70;61.60
17092;DHT22;8661;45.700;4.880;2023-07-28T14:30:59;32.90;61.40
17092;DHT22;8661;45.700;4.880;2023-07-28T14:33:26;32.80;61.00
17092;DHT22;8661;45.700;4.880;2023-07-28T14:35:53;32.70;61.40
17092;DHT22;8661;45.700;4.880;2023-07-28T14:38:20;32.80;60.20
17092;DHT22;8661;45.700;4.880;2023-07-28T14:40:48;32.80;59.60
17092;DHT22;8661;45.700;4.880;2023-07-28T14:43:17;33.00;58.40
17092;DHT22;8661;45.700;4.880;2023-07-28T14:45:45;33.00;58.60
17092;DHT22;8661;45.700;4.880;2023-07-28T14:48:12;33.10;58.30
17092;DHT22;8661;45.700;4.880;2023-07-28T14:50:38;33.50;58.20
17092;DHT22;8661;45.700;4.880;2023-07-28T14:53:30;33.30;57.90
17092;DHT22;8661;45.700;4.880;2023-07-28T14:56:00;33.20;58.30
17092;DHT22;8661;45.700;4.880;2023-07-28T14:58:28;32.90;58.60
17092;DHT22;8661;45.700;4.880;2023-07-28T15:00:55;32.90;58.80
17092;DHT22;8661;45.700;4.880;2023-07-28T15:03:24;32.80;58.80
17092;DHT22;8661;45.700;4.880;2023-07-28T15:05:51;32.60;59.10
17092;DHT22;8661;45.700;4.880;2023-07-28T15:08:18;32.50;59.40
17092;DHT22;8661;45.700;4.880;2023-07-28T15:10:45;32.50;59.50
17092;DHT22;8661;45.700;4.880;2023-07-28T15:13:13;32.30;59.40
17092;DHT22;8661;45.700;4.880;2023-07-28T15:15:40;32.20;59.10
17092;DHT22;8661;45.700;4.880;2023-07-28T15:18:07;32.10;59.40
17092;DHT22;8661;45.700;4.880;2023-07-28T15:20:35;32.00;60.40
17092;DHT22;8661;45.700;4.880;2023-07-28T15:23:02;31.90;60.80
17092;DHT22;8661;45.700;4.880;2023-07-28T15:25:29;31.90;61.10
17092;DHT22;8661;45.700;4.880;2023-07-28T15:27:55;31.90;62.00
17092;DHT22;8661;45.700;4.880;2023-07-28T15:30:24;31.90;61.00
17092;DHT22;8661;45.700;4.880;2023-07-28T15:32:51;31.90;61.10
17092;DHT22;8661;45.700;4.880;2023-07-28T15:35:18;31.90;61.50
17092;DHT22;8661;45.700;4.880;2023-07-28T15:37:45;32.00;61.10
17092;DHT22;8661;45.700;4.880;2023-07-28T15:40:12;32.00;62.30
17092;DHT22;8661;45.700;4.880;2023-07-28T15:42:40;32.00;61.70
17092;DHT22;8661;45.700;4.880;2023-07-28T15:45:08;31.90;62.10
17092;DHT22;8661;45.700;4.880;2023-07-28T15:47:36;31.90;62.20
17092;DHT22;8661;45.700;4.880;2023-07-28T15:50:03;31.90;62.30